Time;durP1;ratioP1;P1;durP2;ratioP2;P2;SDS_P1;SDS_P2;PMS_P1;PMS_P2;Temp;Humidity;BMP_temperature;BMP_pressure;BME280_temperature;BME280_humidity;BME280_pressure;Samples;Min_cycle;Max_cycle;Signal;HPM_P1;HPM_P2
2022/12/15 00:40:58;;;;;;;151.60;74.80;;;;;;;-4.51;89.32;97185.38;422149;1294;108560;-39
2022/12/15 00:51:06;;;;;;;131.80;68.00;;;;;;;-4.33;89.11;97198.34;422170;1294;97979;-39
2022/12/15 01:22:01;;;;;;;95.70;45.30;;;;;;;-4.01;89.50;97217.46;422215;1288;97971;-40
2022/12/15 01:42:14;;;;;;;90.20;39.10;;;;;;;-4.10;89.69;97234.13;422170;1286;109399;-39
2022/12/15 01:52:20;;;;;;;94.20;49.10;;;;;;;-4.07;89.67;97240.30;422246;1284;98001;-39
2022/12/15 02:02:30;;;;;;;80.80;46.80;;;;;;;-3.96;89.49;97243.79;422089;1296;108553;-39
2022/12/15 02:12:43;;;;;;;64.80;37.70;;;;;;;-3.84;89.68;97257.15;422198;1288;97876;-39
2022/12/15 02:22:54;;;;;;;93.60;45.70;;;;;;;-3.85;89.55;97266.20;422282;1288;109865;-40
2022/12/15 02:33:01;;;;;;;90.50;43.20;;;;;;;-4.01;89.52;97286.29;423143;1259;107061;-39
2022/12/15 02:43:10;;;;;;;91.40;42.60;;;;;;;-4.19;89.71;97307.37;421858;1298;406220;-39
2022/12/15 02:53:19;;;;;;;96.20;42.50;;;;;;;-4.25;89.90;97314.66;422287;1296;100058;-39
2022/12/15 03:03:29;;;;;;;88.10;40.40;;;;;;;-4.25;90.04;97315.95;422304;1293;108955;-40
2022/12/15 03:13:37;;;;;;;94.70;51.20;;;;;;;-4.14;89.94;97323.54;422161;1296;107247;-39
2022/12/15 03:23:43;;;;;;;87.70;47.30;;;;;;;-3.97;89.95;97332.16;422168;1286;97873;-40
2022/12/15 03:33:50;;;;;;;68.30;38.40;;;;;;;-3.78;90.00;97346.39;422126;1289;110011;-40
2022/12/15 03:43:58;;;;;;;78.90;38.30;;;;;;;-3.62;90.14;97369.80;422170;1296;109020;-40
2022/12/15 03:54:06;;;;;;;79.60;34.70;;;;;;;-3.63;90.15;97381.71;422203;1296;99236;-39
2022/12/15 04:04:13;;;;;;;88.50;38.70;;;;;;;-3.66;90.20;97380.63;422078;1293;110162;-39
2022/12/15 04:14:20;;;;;;;85.80;38.00;;;;;;;-3.70;90.21;97400.98;422286;1294;98873;-39
2022/12/15 05:37:24;;;;;;;73.80;37.10;;;;;;;-5.49;89.21;97519.61;422167;1292;99240;-39
2022/12/15 05:47:31;;;;;;;98.10;47.00;;;;;;;-5.56;89.39;97544.48;422064;1293;108431;-41
2022/12/15 05:57:38;;;;;;;69.70;39.40;;;;;;;-5.18;90.10;97562.56;422139;1288;98082;-39
2022/12/15 06:07:45;;;;;;;64.40;33.50;;;;;;;-4.82;90.22;97580.37;422205;1287;111504;-39
2022/12/15 06:17:54;;;;;;;59.60;31.20;;;;;;;-4.60;89.99;97589.75;422191;1295;108534;-39
2022/12/15 06:28:01;;;;;;;59.80;30.60;;;;;;;-4.46;90.13;97602.90;422160;1287;99035;-40
2022/12/15 06:38:09;;;;;;;76.80;36.30;;;;;;;-4.34;90.01;97629.16;422052;1296;108508;-41
2022/12/15 06:48:16;;;;;;;58.70;28.90;;;;;;;-4.29;89.94;97654.54;422130;1289;98851;-39
2022/12/15 06:58:23;;;;;;;71.30;35.20;;;;;;;-4.19;90.01;97662.54;422044;1296;111721;-39
2022/12/15 07:08:31;;;;;;;67.50;33.20;;;;;;;-4.14;89.81;97668.73;422114;1296;107070;-39
2022/12/15 07:18:47;;;;;;;58.10;31.10;;;;;;;-4.13;89.71;97687.88;422240;1296;98816;-40
2022/12/15 07:28:54;;;;;;;58.20;28.90;;;;;;;-4.04;89.90;97712.98;422058;1296;107572;-40
2022/12/15 07:39:03;;;;;;;82.80;35.30;;;;;;;-3.94;89.93;97736.40;422051;1279;97978;-39
2022/12/15 07:49:10;;;;;;;73.50;31.90;;;;;;;-4.01;89.72;97754.69;422184;1296;111117;-40
2022/12/15 07:59:17;;;;;;;61.70;29.00;;;;;;;-4.04;89.87;97773.88;421999;1292;108662;-39
2022/12/15 08:09:23;;;;;;;65.10;29.40;;;;;;;-4.01;89.84;97792.17;422119;1296;98037;-39
2022/12/15 08:19:31;;;;;;;103.70;39.60;;;;;;;-4.02;89.93;97808.09;422180;1292;111673;-40
2022/12/15 08:29:38;;;;;;;81.40;35.70;;;;;;;-4.00;89.94;97815.80;422110;1288;108429;-38
2022/12/15 08:40:01;;;;;;;55.20;30.50;;;;;;;-3.81;89.88;97827.84;422176;1294;98031;-39
2022/12/15 08:50:10;;;;;;;47.30;23.50;;;;;;;-3.47;89.73;97833.00;422138;1293;108501;-40
2022/12/15 09:10:23;;;;;;;65.10;29.00;;;;;;;-2.83;89.94;97852.73;422263;1293;111584;-39
2022/12/15 09:20:31;;;;;;;67.40;29.90;;;;;;;-2.77;89.71;97860.78;422075;1296;107910;-39
2022/12/15 09:30:38;;;;;;;43.20;25.10;;;;;;;-2.73;89.61;97854.95;422101;1288;98048;-42
2022/12/15 09:40:45;;;;;;;30.10;18.10;;;;;;;-2.37;89.39;97857.84;422164;1281;111178;-40
2022/12/15 09:50:57;;;;;;;60.00;29.40;;;;;;;-2.20;89.39;97864.45;422269;1292;109402;-40
2022/12/15 10:01:08;;;;;;;54.20;24.70;;;;;;;-2.05;89.17;97882.23;422200;1296;98045;-39
2022/12/15 10:11:16;;;;;;;49.00;23.40;;;;;;;-2.00;89.03;97898.14;422167;1288;110958;-41
2022/12/15 10:21:26;;;;;;;65.70;28.90;;;;;;;-2.04;88.76;97898.78;422303;1295;109556;-40
2022/12/15 10:31:35;;;;;;;40.10;20.80;;;;;;;-2.16;88.36;97910.01;422090;1289;97982;-39
2022/12/15 10:41:43;;;;;;;52.90;24.90;;;;;;;-2.06;88.27;97895.94;422140;1296;108519;-40
2022/12/15 11:02:25;;;;;;;63.80;29.80;;;;;;;-1.97;88.32;97891.95;422100;1290;110234;-40
2022/12/15 11:23:08;;;;;;;47.00;23.20;;;;;;;-2.10;88.01;97925.32;422189;1288;99153;-39
2022/12/15 11:33:16;;;;;;;41.70;24.20;;;;;;;-2.12;88.15;97935.08;422060;1296;111008;-40
2022/12/15 12:14:20;;;;;;;39.70;20.20;;;;;;;-1.68;87.72;97977.21;422126;1288;98036;-40
2022/12/15 12:24:30;;;;;;;56.10;26.30;;;;;;;-1.60;87.84;97987.66;422150;1295;110493;-39
2022/12/15 12:34:38;;;;;;;49.40;23.30;;;;;;;-1.60;87.98;97991.84;422156;1287;108708;-42
2022/12/15 12:44:46;;;;;;;53.90;25.60;;;;;;;-1.70;87.67;98004.17;422255;1287;99227;-40
2022/12/15 12:55:23;;;;;;;47.50;24.10;;;;;;;-1.88;87.65;98002.33;422091;1280;109546;-41
2022/12/15 13:25:39;;;;;;;48.20;23.60;;;;;;;-2.17;87.59;98001.66;422100;1295;109491;-40
2022/12/15 13:35:47;;;;;;;48.10;22.00;;;;;;;-2.27;87.65;98003.63;422177;1286;99213;-46
2022/12/15 13:45:59;;;;;;;38.40;19.70;;;;;;;-2.32;87.34;98010.79;422192;1295;109350;-39
2022/12/15 13:56:05;;;;;;;39.30;18.90;;;;;;;-2.32;87.34;98016.98;422141;1288;99237;-38
2022/12/15 14:06:14;;;;;;;62.10;28.60;;;;;;;-2.32;87.57;98023.84;422209;1288;111157;-40
2022/12/15 14:16:23;;;;;;;55.20;27.20;;;;;;;-2.50;87.33;98033.89;422093;1296;107894;-39
2022/12/15 14:26:31;;;;;;;64.90;31.00;;;;;;;-2.75;87.47;98043.86;422290;1294;120122;-40
2022/12/15 14:36:39;;;;;;;60.90;27.40;;;;;;;-2.88;87.20;98049.73;422068;1292;355395;-41
2022/12/15 14:46:45;;;;;;;49.60;23.90;;;;;;;-3.00;87.31;98056.36;422067;1286;108507;-39
2022/12/15 14:56:56;;;;;;;57.80;31.50;;;;;;;-3.13;87.40;98080.08;422251;1287;98320;-42
2022/12/15 15:07:06;;;;;;;68.60;31.70;;;;;;;-3.32;87.23;98095.68;422291;1287;108078;-40
2022/12/15 15:27:24;;;;;;;97.50;49.00;;;;;;;-3.59;87.01;98106.98;422248;1293;110252;-41
2022/12/15 15:37:33;;;;;;;72.00;35.00;;;;;;;-3.51;87.12;98107.71;422221;1297;107359;-39
2022/12/15 15:47:41;;;;;;;68.80;31.30;;;;;;;-3.49;86.98;98125.95;422296;1296;99297;-39
2022/12/15 16:07:54;;;;;;;164.40;66.50;;;;;;;-3.85;86.88;98157.27;422288;1284;99221;-38
2022/12/15 16:18:01;;;;;;;142.10;63.00;;;;;;;-4.05;87.06;98144.77;422182;1287;111990;-39
2022/12/15 16:28:12;;;;;;;127.10;58.10;;;;;;;-4.21;87.13;98108.36;422191;1287;107453;-39
2022/12/15 16:38:18;;;;;;;149.80;65.40;;;;;;;-4.37;87.19;98097.13;422248;1287;98379;-39
2022/12/15 16:48:25;;;;;;;188.50;81.30;;;;;;;-4.46;87.49;98086.83;422242;1287;109149;-40
2022/12/15 16:58:36;;;;;;;161.20;77.20;;;;;;;-4.51;87.24;98090.41;422199;1281;99332;-39
2022/12/15 17:08:46;;;;;;;154.20;78.30;;;;;;;-4.48;87.06;98099.08;422233;1295;112203;-39
2022/12/15 17:18:54;;;;;;;217.80;90.20;;;;;;;-4.36;87.36;98106.13;422258;1287;108478;-40
2022/12/15 17:29:08;;;;;;;235.40;97.90;;;;;;;-4.24;87.72;98122.54;422253;1288;99208;-39
2022/12/15 17:39:18;;;;;;;227.20;94.50;;;;;;;-4.46;87.12;98120.20;422187;1294;111913;-40
2022/12/15 17:49:25;;;;;;;256.40;103.10;;;;;;;-4.87;86.99;98140.27;422356;1294;106535;-39
2022/12/15 17:59:41;;;;;;;241.20;99.20;;;;;;;-5.27;87.12;98141.78;422232;1287;98856;-38
2022/12/15 18:09:50;;;;;;;225.50;102.90;;;;;;;-5.42;87.13;98130.51;422327;1287;111925;-39
2022/12/15 18:19:57;;;;;;;211.70;110.50;;;;;;;-5.47;87.19;98129.73;422264;1296;105441;-39
2022/12/15 18:30:05;;;;;;;175.50;86.40;;;;;;;-5.24;87.70;98135.02;422296;1298;99236;-38
2022/12/15 18:50:19;;;;;;;163.60;77.50;;;;;;;-4.98;87.43;98137.36;422214;1280;98155;-39
2022/12/15 19:00:24;;;;;;;155.30;76.80;;;;;;;-4.84;87.84;98133.30;422391;1280;112117;-39
2022/12/15 19:10:34;;;;;;;159.90;78.10;;;;;;;-4.65;87.85;98141.27;422248;1296;107278;-39
2022/12/15 19:31:06;;;;;;;217.30;91.50;;;;;;;-4.41;88.07;98147.96;422149;1294;108240;-39
2022/12/15 19:41:12;;;;;;;200.80;85.20;;;;;;;-4.46;88.29;98149.25;422690;1290;99213;-39
2022/12/15 19:51:23;;;;;;;187.10;75.70;;;;;;;-4.50;88.11;98129.38;425594;1288;110549;-39
2022/12/15 20:01:28;;;;;;;186.50;73.40;;;;;;;-4.52;88.15;98126.81;424519;1294;108712;-40
2022/12/15 20:11:37;;;;;;;162.20;70.70;;;;;;;-4.52;88.11;98137.65;424605;1281;117545;-40
2022/12/15 20:21:44;;;;;;;155.70;65.40;;;;;;;-4.49;88.40;98128.63;422234;1290;107475;-39
2022/12/15 20:31:53;;;;;;;148.90;58.80;;;;;;;-4.43;88.47;98133.86;422200;1294;99285;-40
2022/12/15 20:42:00;;;;;;;147.60;72.50;;;;;;;-4.32;88.37;98126.88;422223;1294;111423;-40
2022/12/15 20:52:05;;;;;;;127.50;62.10;;;;;;;-4.13;88.24;98107.55;422124;1288;106904;-38
2022/12/15 21:02:19;;;;;;;129.50;56.00;;;;;;;-3.96;88.38;98096.71;422306;1288;99209;-39
2022/12/15 21:12:28;;;;;;;105.10;42.50;;;;;;;-3.90;88.25;98097.62;422410;1295;107180;-39
2022/12/15 21:22:35;;;;;;;68.60;31.10;;;;;;;-3.97;88.33;98095.45;423085;1280;97964;-40
2022/12/15 21:32:41;;;;;;;60.80;29.10;;;;;;;-3.94;88.00;98091.89;422215;1294;114008;-40
2022/12/15 21:52:56;;;;;;;74.80;35.40;;;;;;;-4.00;88.04;98095.36;422475;1294;99243;-39
2022/12/15 22:03:03;;;;;;;82.60;38.10;;;;;;;-4.08;88.07;98087.89;422310;1293;111952;-39
2022/12/15 22:13:12;;;;;;;77.10;38.30;;;;;;;-4.09;88.06;98074.36;422254;1296;109349;-38
2022/12/15 22:33:26;;;;;;;95.80;39.60;;;;;;;-3.90;88.14;98048.41;422181;1289;108726;-40
2022/12/15 22:43:31;;;;;;;108.10;44.20;;;;;;;-3.94;88.22;98036.31;422273;1289;99213;-40
2022/12/15 22:53:38;;;;;;;76.80;38.20;;;;;;;-3.96;87.91;98021.63;422223;1297;111056;-40
2022/12/15 23:03:46;;;;;;;67.10;35.80;;;;;;;-3.92;88.03;98031.07;422101;1296;107273;-40
2022/12/15 23:13:54;;;;;;;101.90;44.10;;;;;;;-3.93;88.27;98024.61;422270;1294;99214;-39
2022/12/15 23:24:01;;;;;;;109.90;42.80;;;;;;;-4.08;88.22;98027.48;422182;1296;112194;-39
2022/12/15 23:34:09;;;;;;;75.50;39.00;;;;;;;-4.12;88.18;98014.77;422138;1301;107877;-40
2022/12/15 23:44:16;;;;;;;70.30;34.10;;;;;;;-4.08;88.48;98019.77;422178;1290;97952;-40
2022/12/15 23:54:23;;;;;;;108.10;45.20;;;;;;;-4.10;88.31;98013.75;422301;1293;111445;-39
